Time;durP1;ratioP1;P1;durP2;ratioP2;P2;SDS_P1;SDS_P2;PMS_P1;PMS_P2;Temp;Humidity;BMP_temperature;BMP_pressure;BME280_temperature;BME280_humidity;BME280_pressure;Samples;Min_cycle;Max_cycle;Signal;HPM_P1;HPM_P2
2023/06/11 00:01:18;;;;;;;8.80;5.50;;;;;;;;;;10360247;28;20053;-81
2023/06/11 00:06:20;;;;;;;11.77;5.03;;;;;;;;;;10362609;28;20026;-76
2023/06/11 00:11:21;;;;;;;9.15;4.95;;;;;;;;;;10361100;28;20030;-82
2023/06/11 00:16:30;;;;;;;11.27;4.93;;;;;;;;;;10360800;28;20449;-80
2023/06/11 00:21:31;;;;;;;6.78;5.03;;;;;;;;;;10362774;28;20034;-82
2023/06/11 00:26:33;;;;;;;7.03;4.90;;;;;;;;;;10356366;28;20037;-77
2023/06/11 00:31:33;;;;;;;9.38;5.07;;;;;;;;;;10371852;28;20038;-78
2023/06/11 00:36:35;;;;;;;9.67;4.97;;;;;;;;;;10363607;28;20486;-74
2023/06/11 00:41:36;;;;;;;7.63;4.95;;;;;;;;;;10386960;28;20026;-75
2023/06/11 00:46:37;;;;;;;10.40;5.82;;;;;;;;;;10369196;28;20567;-73
2023/06/11 00:51:46;;;;;;;7.15;5.30;;;;;;;;;;10369803;28;20406;-80
2023/06/11 00:56:47;;;;;;;11.23;5.95;;;;;;;;;;10365796;28;20050;-84
2023/06/11 01:02:05;;;;;;;6.60;5.43;;;;;;;;;;10345745;28;20494;-87
2023/06/11 01:07:07;;;;;;;9.93;6.22;;;;;;;;;;10360479;28;20038;-79
2023/06/11 01:12:13;;;;;;;13.48;6.82;;;;;;;;;;10361306;28;20026;-82
2023/06/11 01:17:26;;;;;;;9.98;6.57;;;;;;;;;;10364982;28;20145;-81
2023/06/11 01:22:38;;;;;;;9.40;6.18;;;;;;;;;;10359357;28;20605;-78
2023/06/11 01:27:57;;;;;;;11.68;6.88;;;;;;;;;;10356487;28;20077;-75
2023/06/11 01:32:59;;;;;;;12.45;8.23;;;;;;;;;;10356699;28;20473;-79
2023/06/11 01:37:59;;;;;;;14.38;9.02;;;;;;;;;;10356256;28;20030;-76
2023/06/11 01:43:00;;;;;;;14.05;8.18;;;;;;;;;;10357339;28;20022;-76
2023/06/11 01:48:01;;;;;;;12.10;9.13;;;;;;;;;;10368698;28;20133;-75
2023/06/11 01:53:03;;;;;;;27.23;10.38;;;;;;;;;;10357745;28;20030;-82
2023/06/11 01:58:06;;;;;;;10.85;7.53;;;;;;;;;;10347529;28;20037;-77
2023/06/11 02:03:08;;;;;;;12.90;7.03;;;;;;;;;;10360678;28;20509;-75
2023/06/11 02:08:09;;;;;;;11.35;8.18;;;;;;;;;;10359006;28;20054;-76
2023/06/11 02:13:09;;;;;;;15.27;6.85;;;;;;;;;;10355450;28;20030;-79
2023/06/11 02:18:09;;;;;;;19.15;6.70;;;;;;;;;;10355927;28;20528;-79
2023/06/11 02:23:10;;;;;;;12.30;6.55;;;;;;;;;;10358124;28;20037;-83
2023/06/11 02:28:12;;;;;;;14.82;6.72;;;;;;;;;;10357281;28;20096;-83
2023/06/11 02:33:12;;;;;;;11.95;6.50;;;;;;;;;;10351172;28;20088;-81
2023/06/11 02:38:12;;;;;;;11.70;6.33;;;;;;;;;;10359239;28;20442;-79
2023/06/11 02:43:14;;;;;;;9.55;6.85;;;;;;;;;;10358262;28;20056;-81
2023/06/11 02:48:15;;;;;;;13.95;6.65;;;;;;;;;;10358158;28;20041;-78
2023/06/11 02:53:15;;;;;;;9.70;6.30;;;;;;;;;;10355007;28;20034;-76
2023/06/11 02:58:17;;;;;;;13.05;7.25;;;;;;;;;;10357943;28;20038;-84
2023/06/11 03:03:23;;;;;;;11.00;7.30;;;;;;;;;;10339741;28;20417;-79
2023/06/11 03:08:25;;;;;;;14.82;6.72;;;;;;;;;;10362014;28;20518;-81
2023/06/11 03:13:25;;;;;;;15.20;6.57;;;;;;;;;;10352814;28;20045;-77
2023/06/11 03:18:25;;;;;;;10.50;6.70;;;;;;;;;;10343714;28;20112;-78
2023/06/11 03:23:27;;;;;;;9.25;6.85;;;;;;;;;;10363736;28;20434;-78
2023/06/11 03:28:28;;;;;;;12.27;6.10;;;;;;;;;;10351598;28;20037;-82
2023/06/11 03:33:29;;;;;;;10.05;6.35;;;;;;;;;;10365045;28;20049;-76
2023/06/11 03:38:29;;;;;;;10.97;6.73;;;;;;;;;;10366741;28;20018;-83
2023/06/11 03:43:29;;;;;;;11.80;6.90;;;;;;;;;;10351393;28;20080;-81
2023/06/11 03:48:30;;;;;;;11.68;6.57;;;;;;;;;;10361718;28;20072;-80
2023/06/11 03:53:32;;;;;;;10.18;5.82;;;;;;;;;;10381508;28;20037;-81
2023/06/11 03:58:32;;;;;;;16.77;6.18;;;;;;;;;;10348741;28;20049;-78
2023/06/11 04:03:33;;;;;;;12.60;6.55;;;;;;;;;;10397474;28;20032;-82
2023/06/11 04:08:33;;;;;;;11.95;6.57;;;;;;;;;;10372043;28;20033;-80
2023/06/11 04:13:33;;;;;;;9.63;6.30;;;;;;;;;;10389064;28;20032;-81
2023/06/11 04:18:34;;;;;;;13.63;7.20;;;;;;;;;;10383513;28;20083;-81
2023/06/11 04:23:34;;;;;;;10.23;7.45;;;;;;;;;;10387984;28;20033;-76
2023/06/11 04:28:36;;;;;;;9.57;6.57;;;;;;;;;;10421252;28;20089;-76
2023/06/11 04:33:36;;;;;;;15.00;7.80;;;;;;;;;;10396528;28;20014;-75
2023/06/11 04:38:44;;;;;;;12.55;7.10;;;;;;;;;;10381620;28;20108;-80
2023/06/11 04:43:45;;;;;;;8.20;6.38;;;;;;;;;;10379059;28;20029;-78
2023/06/11 04:48:48;;;;;;;12.15;6.45;;;;;;;;;;10390298;28;20579;-81
2023/06/11 04:53:58;;;;;;;12.52;6.07;;;;;;;;;;10406794;28;20018;-82
2023/06/11 04:58:58;;;;;;;11.52;6.80;;;;;;;;;;10382381;28;20049;-78
2023/06/11 05:03:58;;;;;;;20.33;6.10;;;;;;;;;;10346761;28;20087;-85
2023/06/11 05:08:59;;;;;;;11.38;6.15;;;;;;;;;;10358817;28;20083;-85
2023/06/11 05:13:59;;;;;;;11.20;5.47;;;;;;;;;;10353851;28;20022;-79
2023/06/11 05:19:01;;;;;;;11.40;6.13;;;;;;;;;;10366399;28;20027;-83
2023/06/11 05:24:07;;;;;;;13.23;6.35;;;;;;;;;;10382714;28;20021;-80
2023/06/11 05:29:08;;;;;;;13.27;5.95;;;;;;;;;;10381886;28;20637;-81
2023/06/11 05:34:09;;;;;;;10.40;6.63;;;;;;;;;;10379592;28;20051;-78
2023/06/11 05:39:09;;;;;;;8.73;6.15;;;;;;;;;;10354740;28;20025;-82
2023/06/11 05:44:09;;;;;;;9.15;6.57;;;;;;;;;;10384057;28;20461;-82
2023/06/11 05:49:09;;;;;;;11.10;6.10;;;;;;;;;;10364021;28;20568;-77
2023/06/11 05:54:10;;;;;;;13.07;6.15;;;;;;;;;;10396176;28;20052;-80
2023/06/11 05:59:10;;;;;;;10.15;5.35;;;;;;;;;;10364593;28;20073;-81
2023/06/11 06:04:12;;;;;;;16.88;6.13;;;;;;;;;;10398533;28;20032;-78
2023/06/11 06:09:12;;;;;;;15.93;4.80;;;;;;;;;;10372874;28;20026;-82
2023/06/11 06:14:12;;;;;;;11.77;4.87;;;;;;;;;;10386798;28;20514;-83
2023/06/11 06:19:13;;;;;;;10.40;5.28;;;;;;;;;;10379548;28;20379;-80
2023/06/11 06:24:13;;;;;;;10.05;4.43;;;;;;;;;;10397229;28;20419;-76
2023/06/11 06:29:14;;;;;;;10.25;5.38;;;;;;;;;;10391540;28;20036;-77
2023/06/11 06:34:15;;;;;;;9.88;5.35;;;;;;;;;;10379076;28;20033;-78
2023/06/11 06:39:15;;;;;;;8.88;5.15;;;;;;;;;;10360213;28;20032;-78
2023/06/11 06:44:16;;;;;;;8.48;5.10;;;;;;;;;;10375561;28;20039;-77
2023/06/11 06:49:17;;;;;;;17.13;5.78;;;;;;;;;;10355055;28;20055;-79
2023/06/11 06:54:17;;;;;;;12.73;7.57;;;;;;;;;;10352011;28;20555;-78
2023/06/11 06:59:17;;;;;;;16.90;6.40;;;;;;;;;;10360685;28;20053;-82
2023/06/11 07:04:18;;;;;;;9.00;5.50;;;;;;;;;;10389038;28;20018;-80
2023/06/11 07:09:19;;;;;;;8.15;5.28;;;;;;;;;;10358759;28;20037;-79
2023/06/11 07:14:20;;;;;;;9.95;5.18;;;;;;;;;;10390984;28;20056;-82
2023/06/11 07:19:20;;;;;;;7.37;4.93;;;;;;;;;;10379679;28;20469;-76
2023/06/11 07:24:20;;;;;;;7.80;4.88;;;;;;;;;;10381999;28;20567;-79
2023/06/11 07:29:21;;;;;;;8.32;5.07;;;;;;;;;;10373440;28;20025;-78
2023/06/11 07:34:21;;;;;;;8.90;4.90;;;;;;;;;;10369688;28;20026;-76
2023/06/11 07:39:22;;;;;;;13.05;4.63;;;;;;;;;;10372828;28;20028;-78
2023/06/11 07:44:23;;;;;;;10.68;4.95;;;;;;;;;;10393230;28;20025;-81
2023/06/11 07:49:23;;;;;;;7.72;3.53;;;;;;;;;;10366134;28;20037;-77
2023/06/11 07:54:23;;;;;;;6.75;3.88;;;;;;;;;;10375388;28;20030;-80
2023/06/11 07:59:25;;;;;;;7.28;3.13;;;;;;;;;;10384459;28;20080;-80
2023/06/11 08:04:26;;;;;;;5.72;3.08;;;;;;;;;;10377990;28;20493;-77
2023/06/11 08:09:28;;;;;;;6.70;2.70;;;;;;;;;;10359478;28;20458;-78
2023/06/11 08:14:28;;;;;;;5.68;2.63;;;;;;;;;;10360769;28;20065;-83
2023/06/11 08:19:30;;;;;;;3.23;2.67;;;;;;;;;;10374243;28;20113;-75
2023/06/11 08:24:31;;;;;;;6.30;3.33;;;;;;;;;;10371818;28;20452;-77
2023/06/11 08:29:32;;;;;;;6.68;2.80;;;;;;;;;;10354958;28;20030;-79
2023/06/11 08:34:32;;;;;;;6.22;3.20;;;;;;;;;;10368517;28;20037;-74
2023/06/11 08:39:33;;;;;;;8.97;3.17;;;;;;;;;;10393829;28;20017;-73
2023/06/11 08:44:34;;;;;;;8.02;3.90;;;;;;;;;;10381670;28;20022;-72
2023/06/11 08:49:35;;;;;;;8.73;2.97;;;;;;;;;;10381429;28;20026;-74
2023/06/11 08:54:35;;;;;;;5.68;3.13;;;;;;;;;;10381411;28;20049;-75
2023/06/11 08:59:36;;;;;;;14.43;3.10;;;;;;;;;;10398655;28;20054;-74
2023/06/11 09:04:37;;;;;;;7.80;3.27;;;;;;;;;;10399605;28;20424;-74
2023/06/11 09:09:38;;;;;;;6.50;2.83;;;;;;;;;;10381281;28;20033;-74
2023/06/11 09:14:38;;;;;;;5.47;2.33;;;;;;;;;;10368767;28;20359;-73
2023/06/11 09:19:38;;;;;;;5.57;2.80;;;;;;;;;;10380056;28;20463;-73
2023/06/11 09:24:38;;;;;;;3.80;2.53;;;;;;;;;;10379901;28;20036;-74
2023/06/11 09:29:43;;;;;;;7.07;2.75;;;;;;;;;;10380141;28;20030;-74
2023/06/11 09:34:44;;;;;;;3.83;2.60;;;;;;;;;;10373217;28;20029;-77
2023/06/11 09:39:46;;;;;;;3.85;2.85;;;;;;;;;;10373008;28;20048;-73
2023/06/11 09:44:47;;;;;;;8.52;2.58;;;;;;;;;;10379545;28;20485;-75
2023/06/11 09:49:48;;;;;;;6.03;2.92;;;;;;;;;;10369708;28;20026;-73
2023/06/11 09:54:49;;;;;;;6.47;3.28;;;;;;;;;;10381269;28;20259;-74
2023/06/11 09:59:52;;;;;;;4.53;2.95;;;;;;;;;;10343063;28;20100;-78
2023/06/11 10:04:53;;;;;;;8.30;3.53;;;;;;;;;;10352927;28;20109;-74
2023/06/11 10:09:54;;;;;;;6.28;3.05;;;;;;;;;;10367875;28;20053;-75
2023/06/11 10:14:55;;;;;;;8.52;4.38;;;;;;;;;;10361376;28;20057;-75
2023/06/11 10:19:55;;;;;;;5.55;3.20;;;;;;;;;;10374283;28;20028;-76
2023/06/11 10:25:00;;;;;;;4.20;2.67;;;;;;;;;;10382626;28;20025;-74
2023/06/11 10:30:04;;;;;;;6.47;3.05;;;;;;;;;;10348487;28;20087;-74
2023/06/11 10:35:06;;;;;;;4.65;3.15;;;;;;;;;;10374568;28;20079;-74
2023/06/11 10:40:08;;;;;;;7.70;2.97;;;;;;;;;;10355508;28;20413;-74
2023/06/11 10:45:09;;;;;;;9.13;2.92;;;;;;;;;;10372412;28;20014;-73
2023/06/11 10:50:10;;;;;;;6.00;3.42;;;;;;;;;;10386771;28;20083;-77
2023/06/11 10:55:13;;;;;;;6.43;2.72;;;;;;;;;;10382910;28;20052;-73
2023/06/11 11:00:13;;;;;;;6.88;3.40;;;;;;;;;;10413402;28;20045;-74
2023/06/11 11:05:14;;;;;;;6.95;3.10;;;;;;;;;;10386176;28;20405;-77
2023/06/11 11:10:19;;;;;;;4.97;3.27;;;;;;;;;;10386306;28;20029;-75
2023/06/11 11:15:19;;;;;;;7.82;3.85;;;;;;;;;;10386857;28;20025;-78
2023/06/11 11:20:21;;;;;;;9.52;3.50;;;;;;;;;;10368703;28;20021;-79
2023/06/11 11:25:22;;;;;;;11.63;3.42;;;;;;;;;;10385959;28;20030;-81
2023/06/11 11:30:24;;;;;;;7.57;3.10;;;;;;;;;;10392931;28;20021;-75
2023/06/11 11:35:26;;;;;;;5.60;3.63;;;;;;;;;;10384837;28;20497;-75
2023/06/11 11:40:29;;;;;;;5.60;3.10;;;;;;;;;;10384813;28;20024;-78
2023/06/11 11:45:33;;;;;;;5.10;3.00;;;;;;;;;;10384318;28;20634;-78
2023/06/11 11:50:36;;;;;;;8.38;3.85;;;;;;;;;;10384603;28;20044;-77
2023/06/11 11:55:38;;;;;;;5.95;3.50;;;;;;;;;;10385145;28;20040;-78
2023/06/11 12:00:51;;;;;;;5.93;3.83;;;;;;;;;;10379928;28;20487;-79
2023/06/11 12:06:08;;;;;;;4.30;2.45;;;;;;;;;;10381493;28;20028;-82
2023/06/11 12:11:09;;;;;;;;;;;;;;;;;;10394024;28;20053;-80
2023/06/11 12:16:09;;;;;;;13.65;3.25;;;;;;;;;;10383272;28;19909;-74
2023/06/11 12:21:10;;;;;;;3.80;2.67;;;;;;;;;;10398280;28;20208;-74
2023/06/11 12:26:10;;;;;;;9.48;3.30;;;;;;;;;;10382669;28;20377;-79
2023/06/11 12:31:10;;;;;;;7.40;3.23;;;;;;;;;;10376379;28;20432;-79
2023/06/11 12:36:11;;;;;;;6.30;3.17;;;;;;;;;;10392063;28;20668;-75
2023/06/11 12:41:11;;;;;;;6.72;3.05;;;;;;;;;;10382688;28;20087;-78
2023/06/11 12:46:11;;;;;;;3.53;2.53;;;;;;;;;;10382463;28;20484;-75
2023/06/11 12:51:11;;;;;;;5.30;3.35;;;;;;;;;;10381543;28;20468;-74
2023/06/11 12:56:12;;;;;;;5.70;2.95;;;;;;;;;;10399385;28;20116;-76
2023/06/11 13:01:12;;;;;;;5.88;2.78;;;;;;;;;;10385309;28;20049;-77
2023/06/11 13:06:13;;;;;;;4.20;2.80;;;;;;;;;;10400505;28;20022;-75
2023/06/11 13:11:13;;;;;;;5.63;2.87;;;;;;;;;;10381607;28;20095;-76
2023/06/11 13:16:13;;;;;;;5.07;2.67;;;;;;;;;;10380608;28;20091;-75
2023/06/11 13:21:15;;;;;;;5.47;2.50;;;;;;;;;;10342502;28;20514;-74
2023/06/11 13:26:15;;;;;;;5.72;2.40;;;;;;;;;;10357355;28;20697;-75
2023/06/11 13:31:15;;;;;;;8.35;2.75;;;;;;;;;;10356719;28;20026;-79
2023/06/11 13:36:16;;;;;;;6.28;2.90;;;;;;;;;;10324345;23;20050;-78
2023/06/11 13:41:16;;;;;;;6.55;2.55;;;;;;;;;;10299253;28;20026;-75
2023/06/11 13:46:16;;;;;;;3.10;2.10;;;;;;;;;;10299246;28;20026;-80
2023/06/11 13:51:16;;;;;;;3.97;2.30;;;;;;;;;;10299032;28;20081;-76
2023/06/11 13:56:17;;;;;;;2.92;2.30;;;;;;;;;;10301125;28;20037;-77
2023/06/11 14:01:17;;;;;;;3.25;2.20;;;;;;;;;;10318260;28;20081;-79
2023/06/11 14:06:20;;;;;;;6.82;2.53;;;;;;;;;;10294038;28;20098;-75
2023/06/11 14:11:20;;;;;;;4.50;2.80;;;;;;;;;;10297967;28;20049;-80
2023/06/11 14:16:20;;;;;;;4.47;3.00;;;;;;;;;;10298391;28;20095;-74
2023/06/11 14:21:21;;;;;;;8.73;3.57;;;;;;;;;;10299037;28;20509;-74
2023/06/11 14:26:22;;;;;;;9.95;2.85;;;;;;;;;;10302136;28;20033;-80
2023/06/11 14:31:25;;;;;;;4.55;2.85;;;;;;;;;;10299951;28;20034;-76
2023/06/11 14:36:25;;;;;;;6.18;3.03;;;;;;;;;;10281416;28;20054;-77
2023/06/11 14:41:26;;;;;;;6.47;2.60;;;;;;;;;;10303785;28;20034;-73
2023/06/11 14:46:26;;;;;;;8.00;2.75;;;;;;;;;;10291398;28;20039;-75
2023/06/11 14:51:27;;;;;;;9.70;2.73;;;;;;;;;;10281644;28;20042;-78
2023/06/11 14:56:27;;;;;;;4.68;3.00;;;;;;;;;;10298995;28;20022;-75
2023/06/11 15:01:28;;;;;;;8.20;3.17;;;;;;;;;;10291408;28;20117;-79
2023/06/11 15:06:28;;;;;;;6.13;3.20;;;;;;;;;;10293261;28;20060;-75
2023/06/11 15:11:28;;;;;;;6.18;2.67;;;;;;;;;;10285710;28;20176;-73
2023/06/11 15:16:28;;;;;;;5.63;2.90;;;;;;;;;;10289076;28;20027;-78
2023/06/11 15:21:29;;;;;;;5.68;2.80;;;;;;;;;;10290012;28;20030;-78
2023/06/11 15:26:29;;;;;;;5.22;3.00;;;;;;;;;;10290222;28;20030;-76
2023/06/11 15:31:29;;;;;;;6.95;2.78;;;;;;;;;;10298179;28;20026;-78
2023/06/11 15:36:30;;;;;;;6.17;3.13;;;;;;;;;;10281182;28;20108;-74
2023/06/11 15:41:32;;;;;;;4.37;2.97;;;;;;;;;;10297090;28;20560;-79
2023/06/11 15:46:33;;;;;;;5.60;3.05;;;;;;;;;;10313642;28;20282;-77
2023/06/11 15:51:33;;;;;;;6.33;3.17;;;;;;;;;;10285466;28;20061;-75
2023/06/11 15:56:33;;;;;;;10.82;3.58;;;;;;;;;;10295853;28;20145;-74
2023/06/11 16:01:34;;;;;;;6.80;3.50;;;;;;;;;;10297748;28;20462;-77
2023/06/11 16:06:36;;;;;;;8.57;3.13;;;;;;;;;;10309063;28;20527;-87
2023/06/11 16:11:37;;;;;;;9.68;5.07;;;;;;;;;;10289053;28;20593;-77
2023/06/11 16:16:37;;;;;;;11.77;4.88;;;;;;;;;;10296926;28;20030;-83
2023/06/11 16:21:37;;;;;;;10.35;5.65;;;;;;;;;;10291297;28;20409;-77
2023/06/11 16:26:38;;;;;;;10.80;5.50;;;;;;;;;;10303920;28;20034;-76
2023/06/11 16:31:38;;;;;;;14.32;5.85;;;;;;;;;;10294053;28;20073;-78
2023/06/11 16:36:39;;;;;;;13.88;5.97;;;;;;;;;;10299685;28;20580;-78
2023/06/11 16:41:39;;;;;;;12.05;5.95;;;;;;;;;;10289306;28;20033;-77
2023/06/11 16:46:40;;;;;;;11.20;5.82;;;;;;;;;;10288070;28;20035;-82
2023/06/11 16:51:40;;;;;;;10.23;7.18;;;;;;;;;;10286009;28;20053;-78
2023/06/11 16:56:40;;;;;;;9.80;7.27;;;;;;;;;;10291602;28;20479;-84
2023/06/11 17:01:41;;;;;;;13.90;6.72;;;;;;;;;;10300152;28;20030;-76
2023/06/11 17:06:41;;;;;;;13.27;7.07;;;;;;;;;;10259528;28;20030;-81
2023/06/11 17:11:42;;;;;;;11.32;6.50;;;;;;;;;;10282445;28;20034;-80
2023/06/11 17:16:42;;;;;;;12.57;7.13;;;;;;;;;;10291861;28;20375;-82
2023/06/11 17:21:42;;;;;;;12.90;6.80;;;;;;;;;;10288755;28;20057;-78
2023/06/11 17:26:43;;;;;;;11.23;5.83;;;;;;;;;;10303165;28;20030;-79
2023/06/11 17:31:46;;;;;;;11.50;7.70;;;;;;;;;;10298669;28;20026;-82
2023/06/11 17:36:47;;;;;;;13.90;5.97;;;;;;;;;;10274648;28;20043;-76
2023/06/11 17:41:47;;;;;;;8.60;4.65;;;;;;;;;;10297752;28;20495;-78
2023/06/11 17:46:47;;;;;;;12.88;4.30;;;;;;;;;;10285917;28;20827;-78
2023/06/11 17:51:50;;;;;;;18.25;7.20;;;;;;;;;;10288721;28;20015;-79
2023/06/11 17:56:50;;;;;;;15.27;7.22;;;;;;;;;;10278946;28;20026;-76
2023/06/11 18:01:50;;;;;;;9.13;4.25;;;;;;;;;;10268536;28;20455;-76
2023/06/11 18:06:51;;;;;;;10.85;4.03;;;;;;;;;;10288796;28;20096;-82
2023/06/11 18:11:51;;;;;;;6.53;4.15;;;;;;;;;;10276184;28;20491;-85
2023/06/11 18:16:53;;;;;;;6.95;3.75;;;;;;;;;;10287617;28;20038;-80
2023/06/11 18:21:53;;;;;;;7.18;4.72;;;;;;;;;;10285368;28;20022;-79
2023/06/11 18:26:53;;;;;;;7.57;4.68;;;;;;;;;;10298938;28;20037;-86
2023/06/11 18:31:54;;;;;;;15.85;4.50;;;;;;;;;;10294732;28;20642;-76
2023/06/11 18:36:54;;;;;;;8.55;3.70;;;;;;;;;;10296366;28;20542;-76
2023/06/11 18:41:54;;;;;;;7.03;4.80;;;;;;;;;;10280974;28;20553;-73
2023/06/11 18:47:00;;;;;;;11.98;5.22;;;;;;;;;;10297581;28;20034;-75
2023/06/11 18:52:00;;;;;;;12.07;4.43;;;;;;;;;;10282412;28;20033;-80
2023/06/11 18:57:01;;;;;;;10.93;5.83;;;;;;;;;;10278538;28;20034;-80
2023/06/11 19:02:01;;;;;;;14.13;6.28;;;;;;;;;;10286858;28;20028;-81
2023/06/11 19:07:04;;;;;;;12.77;6.32;;;;;;;;;;10300837;28;20498;-81
2023/06/11 19:12:06;;;;;;;20.30;8.40;;;;;;;;;;10297385;28;20428;-82
2023/06/11 19:17:06;;;;;;;14.40;8.93;;;;;;;;;;10294404;28;20027;-87
2023/06/11 19:22:07;;;;;;;17.05;8.10;;;;;;;;;;10292495;28;20026;-81
2023/06/11 19:27:07;;;;;;;19.65;7.35;;;;;;;;;;10295916;28;20057;-80
2023/06/11 19:32:09;;;;;;;10.45;6.45;;;;;;;;;;10289973;28;20424;-83
2023/06/11 19:37:09;;;;;;;15.73;7.40;;;;;;;;;;10290550;28;20038;-78
2023/06/11 19:42:10;;;;;;;5.88;4.22;;;;;;;;;;10306784;28;20088;-80
2023/06/11 19:47:10;;;;;;;7.72;4.82;;;;;;;;;;10293451;28;20018;-78
2023/06/11 19:52:10;;;;;;;7.97;4.50;;;;;;;;;;10310541;28;20112;-78
2023/06/11 19:57:10;;;;;;;9.65;5.05;;;;;;;;;;10305471;28;20014;-78
2023/06/11 20:02:11;;;;;;;5.93;3.47;;;;;;;;;;10297238;28;20037;-80
2023/06/11 20:07:11;;;;;;;10.27;4.05;;;;;;;;;;10292565;28;20149;-78
2023/06/11 20:12:12;;;;;;;10.50;4.50;;;;;;;;;;10291407;28;20011;-84
2023/06/11 20:17:13;;;;;;;7.75;4.32;;;;;;;;;;10291537;28;20037;-78
2023/06/11 20:22:13;;;;;;;10.88;4.47;;;;;;;;;;10289686;28;20023;-78
2023/06/11 20:27:13;;;;;;;7.65;4.03;;;;;;;;;;10293925;28;20025;-77
2023/06/11 20:32:14;;;;;;;8.15;3.90;;;;;;;;;;10297171;28;20054;-79
2023/06/11 20:37:15;;;;;;;9.35;4.30;;;;;;;;;;10316012;28;20046;-80
2023/06/11 20:42:16;;;;;;;9.18;4.75;;;;;;;;;;10298247;28;20037;-75
2023/06/11 20:47:16;;;;;;;7.82;3.78;;;;;;;;;;10300830;28;20032;-81
2023/06/11 20:52:17;;;;;;;6.63;3.67;;;;;;;;;;10289681;28;20085;-77
2023/06/11 20:57:17;;;;;;;5.95;3.97;;;;;;;;;;10298960;28;20046;-83
2023/06/11 21:02:17;;;;;;;9.73;4.40;;;;;;;;;;10311466;28;20129;-76
2023/06/11 21:07:18;;;;;;;6.47;4.03;;;;;;;;;;10314163;28;20262;-76
2023/06/11 21:12:18;;;;;;;8.90;4.97;;;;;;;;;;10321430;28;20523;-77
2023/06/11 21:17:19;;;;;;;8.18;5.30;;;;;;;;;;10299610;28;20606;-80
2023/06/11 21:22:19;;;;;;;5.32;4.10;;;;;;;;;;10324161;28;20475;-75
2023/06/11 21:27:19;;;;;;;6.17;4.60;;;;;;;;;;10306000;28;20022;-78
2023/06/11 21:32:25;;;;;;;7.13;4.30;;;;;;;;;;10303062;28;20026;-79
2023/06/11 21:37:25;;;;;;;11.48;6.18;;;;;;;;;;10281054;28;20652;-78
2023/06/11 21:42:36;;;;;;;7.68;4.28;;;;;;;;;;10279981;28;20027;-83
2023/06/11 21:47:37;;;;;;;10.75;4.70;;;;;;;;;;10280504;28;20030;-77
2023/06/11 21:52:37;;;;;;;8.37;4.47;;;;;;;;;;10279074;28;20483;-84
2023/06/11 21:57:37;;;;;;;11.60;4.80;;;;;;;;;;10282353;28;20373;-76
2023/06/11 22:02:38;;;;;;;7.13;4.03;;;;;;;;;;10281074;28;20434;-80
2023/06/11 22:07:40;;;;;;;9.18;4.40;;;;;;;;;;10279113;28;20026;-78
2023/06/11 22:12:41;;;;;;;10.45;4.05;;;;;;;;;;10278332;28;20141;-77
2023/06/11 22:17:41;;;;;;;6.10;4.05;;;;;;;;;;10238471;29;20043;-79
2023/06/11 22:22:42;;;;;;;6.10;3.95;;;;;;;;;;10251480;28;20122;-78
2023/06/11 22:27:42;;;;;;;6.07;4.37;;;;;;;;;;10286215;28;20595;-80
2023/06/11 22:32:44;;;;;;;8.80;4.50;;;;;;;;;;10277545;28;20142;-85
2023/06/11 22:37:44;;;;;;;9.32;4.88;;;;;;;;;;10278267;28;20562;-82
2023/06/11 22:42:44;;;;;;;8.73;4.95;;;;;;;;;;10276259;28;20026;-79
2023/06/11 22:47:50;;;;;;;12.40;4.53;;;;;;;;;;10276537;28;20023;-78
2023/06/11 22:52:53;;;;;;;8.18;4.88;;;;;;;;;;10276179;28;20479;-81
2023/06/11 22:57:53;;;;;;;7.00;4.47;;;;;;;;;;10261965;28;20027;-77
2023/06/11 23:02:53;;;;;;;8.05;4.43;;;;;;;;;;10276273;28;20031;-77
2023/06/11 23:07:54;;;;;;;5.90;4.70;;;;;;;;;;10275288;28;20027;-76
2023/06/11 23:12:55;;;;;;;5.40;3.75;;;;;;;;;;10274486;28;20054;-75
2023/06/11 23:17:56;;;;;;;8.80;4.60;;;;;;;;;;10276123;28;20543;-77
2023/06/11 23:22:57;;;;;;;9.10;4.55;;;;;;;;;;10275959;28;20026;-81
2023/06/11 23:27:58;;;;;;;9.53;5.37;;;;;;;;;;10275858;28;20023;-79
2023/06/11 23:32:59;;;;;;;7.43;4.93;;;;;;;;;;10276668;28;20298;-77
2023/06/11 23:38:02;;;;;;;12.07;5.57;;;;;;;;;;10390465;23;20050;-78
2023/06/11 23:43:06;;;;;;;13.60;4.90;;;;;;;;;;10384147;28;20545;-78
2023/06/11 23:48:07;;;;;;;9.25;4.95;;;;;;;;;;10392144;28;20055;-79
2023/06/11 23:53:11;;;;;;;6.63;4.93;;;;;;;;;;10394160;28;20037;-78
2023/06/11 23:58:29;;;;;;;8.10;4.82;;;;;;;;;;10392940;28;20021;-80
